sensor_id;sensor_type;location;lat;lon;timestamp;P1;durP1;ratioP1;P2;durP2;ratioP2
13114;SDS011;6623;52.120;8.660;2022-09-03T00:01:26;2.63;;;0.63;;
13114;SDS011;6623;52.120;8.660;2022-09-03T00:03:54;4.13;;;0.60;;
13114;SDS011;6623;52.120;8.660;2022-09-03T00:06:25;5.37;;;0.67;;
13114;SDS011;6623;52.120;8.660;2022-09-03T00:09:04;1.90;;;0.57;;
13114;SDS011;6623;52.120;8.660;2022-09-03T00:14:25;1.73;;;0.60;;
13114;SDS011;6623;52.120;8.660;2022-09-03T00:17:04;3.57;;;0.60;;
13114;SDS011;6623;52.120;8.660;2022-09-03T00:19:36;0.60;;;0.53;;
13114;SDS011;6623;52.120;8.660;2022-09-03T00:22:12;1.67;;;0.50;;
13114;SDS011;6623;52.120;8.660;2022-09-03T00:24:39;0.60;;;0.50;;
13114;SDS011;6623;52.120;8.660;2022-09-03T00:27:09;0.50;;;0.50;;
13114;SDS011;6623;52.120;8.660;2022-09-03T00:29:40;0.83;;;0.60;;
13114;SDS011;6623;52.120;8.660;2022-09-03T00:32:10;1.73;;;0.50;;
13114;SDS011;6623;52.120;8.660;2022-09-03T00:34:39;0.60;;;0.60;;
13114;SDS011;6623;52.120;8.660;2022-09-03T00:37:07;1.13;;;0.50;;
13114;SDS011;6623;52.120;8.660;2022-09-03T00:39:34;1.17;;;0.70;;
13114;SDS011;6623;52.120;8.660;2022-09-03T00:47:10;1.03;;;0.60;;
13114;SDS011;6623;52.120;8.660;2022-09-03T01:01:02;1.03;;;0.50;;
13114;SDS011;6623;52.120;8.660;2022-09-03T01:03:39;3.37;;;0.60;;
13114;SDS011;6623;52.120;8.660;2022-09-03T01:22:08;0.87;;;0.50;;
13114;SDS011;6623;52.120;8.660;2022-09-03T01:27:27;3.77;;;0.53;;
13114;SDS011;6623;52.120;8.660;2022-09-03T01:37:59;1.00;;;0.60;;
13114;SDS011;6623;52.120;8.660;2022-09-03T01:51:02;0.60;;;0.50;;
13114;SDS011;6623;52.120;8.660;2022-09-03T01:59:00;1.00;;;0.60;;
13114;SDS011;6623;52.120;8.660;2022-09-03T02:04:14;3.37;;;0.60;;
13114;SDS011;6623;52.120;8.660;2022-09-03T02:06:41;1.00;;;0.90;;
13114;SDS011;6623;52.120;8.660;2022-09-03T02:09:10;1.53;;;0.70;;
13114;SDS011;6623;52.120;8.660;2022-09-03T02:14:17;0.80;;;0.63;;
13114;SDS011;6623;52.120;8.660;2022-09-03T02:19:34;2.00;;;0.77;;
13114;SDS011;6623;52.120;8.660;2022-09-03T02:22:01;1.30;;;0.60;;
13114;SDS011;6623;52.120;8.660;2022-09-03T02:24:33;1.07;;;0.63;;
13114;SDS011;6623;52.120;8.660;2022-09-03T02:27:08;1.83;;;0.83;;
13114;SDS011;6623;52.120;8.660;2022-09-03T02:29:40;0.70;;;0.60;;
13114;SDS011;6623;52.120;8.660;2022-09-03T02:32:15;1.13;;;0.47;;
13114;SDS011;6623;52.120;8.660;2022-09-03T02:34:44;2.70;;;0.90;;
13114;SDS011;6623;52.120;8.660;2022-09-03T02:40:09;2.73;;;0.80;;
13114;SDS011;6623;52.120;8.660;2022-09-03T02:42:46;0.97;;;0.53;;
13114;SDS011;6623;52.120;8.660;2022-09-03T02:45:58;3.33;;;0.67;;
13114;SDS011;6623;52.120;8.660;2022-09-03T02:48:00;2.40;;;0.80;;
13114;SDS011;6623;52.120;8.660;2022-09-03T02:50:26;0.97;;;0.70;;
13114;SDS011;6623;52.120;8.660;2022-09-03T02:52:55;1.90;;;0.83;;
13114;SDS011;6623;52.120;8.660;2022-09-03T02:55:21;0.60;;;0.60;;
13114;SDS011;6623;52.120;8.660;2022-09-03T02:57:56;1.20;;;0.57;;
13114;SDS011;6623;52.120;8.660;2022-09-03T03:00:24;0.70;;;0.60;;
13114;SDS011;6623;52.120;8.660;2022-09-03T03:02:54;2.10;;;0.70;;
13114;SDS011;6623;52.120;8.660;2022-09-03T03:08:16;1.97;;;0.73;;
13114;SDS011;6623;52.120;8.660;2022-09-03T03:10:45;1.40;;;0.70;;
13114;SDS011;6623;52.120;8.660;2022-09-03T03:13:11;0.80;;;0.60;;
13114;SDS011;6623;52.120;8.660;2022-09-03T03:15:38;1.37;;;0.80;;
13114;SDS011;6623;52.120;8.660;2022-09-03T03:18:04;2.70;;;0.70;;
13114;SDS011;6623;52.120;8.660;2022-09-03T03:20:31;1.13;;;0.70;;
13114;SDS011;6623;52.120;8.660;2022-09-03T03:23:00;1.70;;;0.70;;
13114;SDS011;6623;52.120;8.660;2022-09-03T03:25:26;0.77;;;0.60;;
13114;SDS011;6623;52.120;8.660;2022-09-03T03:27:55;0.60;;;0.60;;
13114;SDS011;6623;52.120;8.660;2022-09-03T03:30:21;1.10;;;0.63;;
13114;SDS011;6623;52.120;8.660;2022-09-03T03:32:47;1.00;;;0.80;;
13114;SDS011;6623;52.120;8.660;2022-09-03T03:35:19;1.13;;;0.60;;
13114;SDS011;6623;52.120;8.660;2022-09-03T03:38:07;1.50;;;0.80;;
13114;SDS011;6623;52.120;8.660;2022-09-03T03:40:51;2.90;;;0.90;;
13114;SDS011;6623;52.120;8.660;2022-09-03T03:43:35;1.03;;;0.80;;
13114;SDS011;6623;52.120;8.660;2022-09-03T03:46:10;5.27;;;0.90;;
13114;SDS011;6623;52.120;8.660;2022-09-03T03:51:39;1.23;;;0.80;;
13114;SDS011;6623;52.120;8.660;2022-09-03T03:54:08;0.90;;;0.70;;
13114;SDS011;6623;52.120;8.660;2022-09-03T03:56:37;1.00;;;0.70;;
13114;SDS011;6623;52.120;8.660;2022-09-03T03:59:06;2.17;;;0.73;;
13114;SDS011;6623;52.120;8.660;2022-09-03T04:01:37;1.67;;;0.87;;
13114;SDS011;6623;52.120;8.660;2022-09-03T04:04:06;1.37;;;0.80;;
13114;SDS011;6623;52.120;8.660;2022-09-03T04:06:32;1.10;;;0.90;;
13114;SDS011;6623;52.120;8.660;2022-09-03T04:09:00;0.70;;;0.70;;
13114;SDS011;6623;52.120;8.660;2022-09-03T04:11:26;1.13;;;0.80;;
13114;SDS011;6623;52.120;8.660;2022-09-03T04:13:54;1.77;;;0.60;;
13114;SDS011;6623;52.120;8.660;2022-09-03T04:16:30;0.77;;;0.70;;
13114;SDS011;6623;52.120;8.660;2022-09-03T04:18:59;2.03;;;0.80;;
13114;SDS011;6623;52.120;8.660;2022-09-03T04:21:31;3.47;;;0.80;;
13114;SDS011;6623;52.120;8.660;2022-09-03T04:23:57;0.83;;;0.70;;
13114;SDS011;6623;52.120;8.660;2022-09-03T04:26:25;0.90;;;0.80;;
13114;SDS011;6623;52.120;8.660;2022-09-03T04:29:07;1.33;;;0.80;;
13114;SDS011;6623;52.120;8.660;2022-09-03T04:31:34;0.57;;;0.57;;
13114;SDS011;6623;52.120;8.660;2022-09-03T04:34:00;1.17;;;0.90;;
13114;SDS011;6623;52.120;8.660;2022-09-03T04:36:27;1.30;;;0.97;;
13114;SDS011;6623;52.120;8.660;2022-09-03T04:38:54;2.13;;;0.83;;
13114;SDS011;6623;52.120;8.660;2022-09-03T04:41:24;2.53;;;0.80;;
13114;SDS011;6623;52.120;8.660;2022-09-03T04:43:51;1.00;;;0.70;;
13114;SDS011;6623;52.120;8.660;2022-09-03T04:46:18;2.80;;;0.90;;
13114;SDS011;6623;52.120;8.660;2022-09-03T04:48:48;0.87;;;0.77;;
13114;SDS011;6623;52.120;8.660;2022-09-03T04:51:15;1.23;;;1.00;;
13114;SDS011;6623;52.120;8.660;2022-09-03T04:53:42;1.20;;;0.80;;
13114;SDS011;6623;52.120;8.660;2022-09-03T04:59:20;1.27;;;0.80;;
13114;SDS011;6623;52.120;8.660;2022-09-03T05:01:54;1.63;;;0.90;;
13114;SDS011;6623;52.120;8.660;2022-09-03T05:04:23;2.47;;;0.90;;
13114;SDS011;6623;52.120;8.660;2022-09-03T05:09:29;0.93;;;0.90;;
13114;SDS011;6623;52.120;8.660;2022-09-03T05:12:01;2.63;;;1.00;;
13114;SDS011;6623;52.120;8.660;2022-09-03T05:14:45;1.47;;;1.10;;
13114;SDS011;6623;52.120;8.660;2022-09-03T05:17:11;1.10;;;0.97;;
13114;SDS011;6623;52.120;8.660;2022-09-03T05:19:40;1.43;;;1.10;;
13114;SDS011;6623;52.120;8.660;2022-09-03T05:22:18;1.00;;;0.90;;
13114;SDS011;6623;52.120;8.660;2022-09-03T05:24:45;1.47;;;1.00;;
13114;SDS011;6623;52.120;8.660;2022-09-03T05:27:20;2.47;;;1.10;;
13114;SDS011;6623;52.120;8.660;2022-09-03T05:29:49;1.10;;;0.93;;
13114;SDS011;6623;52.120;8.660;2022-09-03T05:32:18;0.77;;;0.60;;
13114;SDS011;6623;52.120;8.660;2022-09-03T05:34:44;1.10;;;0.80;;
13114;SDS011;6623;52.120;8.660;2022-09-03T05:37:13;4.27;;;0.90;;
13114;SDS011;6623;52.120;8.660;2022-09-03T05:39:39;1.63;;;1.10;;
13114;SDS011;6623;52.120;8.660;2022-09-03T05:42:05;3.60;;;0.90;;
13114;SDS011;6623;52.120;8.660;2022-09-03T05:44:31;1.60;;;1.07;;
13114;SDS011;6623;52.120;8.660;2022-09-03T05:46:57;2.10;;;0.90;;
13114;SDS011;6623;52.120;8.660;2022-09-03T05:49:24;1.17;;;0.80;;
13114;SDS011;6623;52.120;8.660;2022-09-03T05:51:50;1.50;;;1.00;;
13114;SDS011;6623;52.120;8.660;2022-09-03T05:54:16;1.10;;;0.70;;
13114;SDS011;6623;52.120;8.660;2022-09-03T05:56:42;1.13;;;0.80;;
13114;SDS011;6623;52.120;8.660;2022-09-03T05:59:08;1.00;;;0.87;;
13114;SDS011;6623;52.120;8.660;2022-09-03T06:01:35;2.23;;;0.90;;
13114;SDS011;6623;52.120;8.660;2022-09-03T06:04:05;1.10;;;1.00;;
13114;SDS011;6623;52.120;8.660;2022-09-03T06:06:33;2.70;;;0.70;;
13114;SDS011;6623;52.120;8.660;2022-09-03T06:09:00;1.33;;;0.90;;
13114;SDS011;6623;52.120;8.660;2022-09-03T06:11:27;1.00;;;0.80;;
13114;SDS011;6623;52.120;8.660;2022-09-03T06:14:03;1.77;;;0.90;;
13114;SDS011;6623;52.120;8.660;2022-09-03T06:16:30;2.57;;;0.87;;
13114;SDS011;6623;52.120;8.660;2022-09-03T06:18:56;2.00;;;0.90;;
13114;SDS011;6623;52.120;8.660;2022-09-03T06:21:44;3.40;;;0.90;;
13114;SDS011;6623;52.120;8.660;2022-09-03T06:24:49;0.70;;;0.70;;
13114;SDS011;6623;52.120;8.660;2022-09-03T06:27:15;1.17;;;0.70;;
13114;SDS011;6623;52.120;8.660;2022-09-03T06:29:45;1.87;;;0.90;;
13114;SDS011;6623;52.120;8.660;2022-09-03T06:32:11;1.40;;;0.80;;
13114;SDS011;6623;52.120;8.660;2022-09-03T06:35:09;2.30;;;0.80;;
13114;SDS011;6623;52.120;8.660;2022-09-03T06:37:50;1.27;;;0.80;;
13114;SDS011;6623;52.120;8.660;2022-09-03T06:43:56;0.93;;;0.80;;
13114;SDS011;6623;52.120;8.660;2022-09-03T06:46:29;1.43;;;1.00;;
13114;SDS011;6623;52.120;8.660;2022-09-03T06:48:55;2.40;;;0.80;;
13114;SDS011;6623;52.120;8.660;2022-09-03T06:51:22;2.90;;;1.00;;
13114;SDS011;6623;52.120;8.660;2022-09-03T06:53:53;9.83;;;0.83;;
13114;SDS011;6623;52.120;8.660;2022-09-03T06:56:22;2.83;;;1.00;;
13114;SDS011;6623;52.120;8.660;2022-09-03T06:58:52;1.83;;;0.80;;
13114;SDS011;6623;52.120;8.660;2022-09-03T07:01:22;1.50;;;0.63;;
13114;SDS011;6623;52.120;8.660;2022-09-03T07:03:53;0.77;;;0.70;;
13114;SDS011;6623;52.120;8.660;2022-09-03T07:06:21;0.90;;;0.70;;
13114;SDS011;6623;52.120;8.660;2022-09-03T07:08:47;2.67;;;0.90;;
13114;SDS011;6623;52.120;8.660;2022-09-03T07:11:16;2.87;;;0.80;;
13114;SDS011;6623;52.120;8.660;2022-09-03T07:13:47;0.70;;;0.70;;
13114;SDS011;6623;52.120;8.660;2022-09-03T07:16:14;3.30;;;0.90;;
13114;SDS011;6623;52.120;8.660;2022-09-03T07:18:41;1.10;;;0.70;;
13114;SDS011;6623;52.120;8.660;2022-09-03T07:21:18;0.90;;;0.70;;
13114;SDS011;6623;52.120;8.660;2022-09-03T07:23:44;1.13;;;0.67;;
13114;SDS011;6623;52.120;8.660;2022-09-03T07:26:12;1.30;;;0.70;;
13114;SDS011;6623;52.120;8.660;2022-09-03T07:28:39;1.00;;;0.90;;
13114;SDS011;6623;52.120;8.660;2022-09-03T07:31:07;1.43;;;0.70;;
13114;SDS011;6623;52.120;8.660;2022-09-03T07:33:35;1.23;;;0.70;;
13114;SDS011;6623;52.120;8.660;2022-09-03T07:36:11;1.30;;;0.90;;
13114;SDS011;6623;52.120;8.660;2022-09-03T07:38:40;1.13;;;0.70;;
13114;SDS011;6623;52.120;8.660;2022-09-03T07:41:08;0.97;;;0.60;;
13114;SDS011;6623;52.120;8.660;2022-09-03T07:43:57;4.97;;;0.80;;
13114;SDS011;6623;52.120;8.660;2022-09-03T07:46:36;1.03;;;0.83;;
13114;SDS011;6623;52.120;8.660;2022-09-03T07:49:14;1.70;;;0.63;;
13114;SDS011;6623;52.120;8.660;2022-09-03T07:51:44;1.07;;;0.80;;
13114;SDS011;6623;52.120;8.660;2022-09-03T07:54:10;4.17;;;1.33;;
13114;SDS011;6623;52.120;8.660;2022-09-03T07:56:37;1.03;;;0.70;;
13114;SDS011;6623;52.120;8.660;2022-09-03T07:59:03;2.10;;;1.00;;
13114;SDS011;6623;52.120;8.660;2022-09-03T08:01:30;1.07;;;0.70;;
13114;SDS011;6623;52.120;8.660;2022-09-03T08:03:56;1.10;;;0.70;;
13114;SDS011;6623;52.120;8.660;2022-09-03T08:06:23;1.43;;;0.70;;
13114;SDS011;6623;52.120;8.660;2022-09-03T08:08:57;2.50;;;0.80;;
13114;SDS011;6623;52.120;8.660;2022-09-03T08:11:25;2.57;;;0.70;;
13114;SDS011;6623;52.120;8.660;2022-09-03T08:13:59;2.20;;;1.00;;
13114;SDS011;6623;52.120;8.660;2022-09-03T08:16:27;1.43;;;0.73;;
13114;SDS011;6623;52.120;8.660;2022-09-03T08:18:53;2.13;;;0.80;;
13114;SDS011;6623;52.120;8.660;2022-09-03T08:21:20;4.07;;;0.87;;
13114;SDS011;6623;52.120;8.660;2022-09-03T08:23:53;1.17;;;0.80;;
13114;SDS011;6623;52.120;8.660;2022-09-03T08:31:47;0.80;;;0.80;;
13114;SDS011;6623;52.120;8.660;2022-09-03T08:34:45;1.17;;;0.70;;
13114;SDS011;6623;52.120;8.660;2022-09-03T08:37:20;3.40;;;0.80;;
13114;SDS011;6623;52.120;8.660;2022-09-03T08:39:55;1.47;;;1.00;;
13114;SDS011;6623;52.120;8.660;2022-09-03T08:45:17;1.27;;;0.80;;
13114;SDS011;6623;52.120;8.660;2022-09-03T08:50:50;1.87;;;0.70;;
13114;SDS011;6623;52.120;8.660;2022-09-03T08:53:21;1.03;;;0.80;;
13114;SDS011;6623;52.120;8.660;2022-09-03T08:56:13;1.70;;;0.60;;
13114;SDS011;6623;52.120;8.660;2022-09-03T08:58:39;1.27;;;0.90;;
13114;SDS011;6623;52.120;8.660;2022-09-03T09:01:16;1.13;;;0.60;;
13114;SDS011;6623;52.120;8.660;2022-09-03T09:17:04;1.37;;;0.97;;
13114;SDS011;6623;52.120;8.660;2022-09-03T09:19:40;1.00;;;0.80;;
13114;SDS011;6623;52.120;8.660;2022-09-03T09:22:08;0.90;;;0.77;;
13114;SDS011;6623;52.120;8.660;2022-09-03T09:24:41;1.47;;;0.97;;
13114;SDS011;6623;52.120;8.660;2022-09-03T09:27:08;4.50;;;0.80;;
13114;SDS011;6623;52.120;8.660;2022-09-03T09:29:35;1.10;;;0.83;;
13114;SDS011;6623;52.120;8.660;2022-09-03T09:32:01;5.70;;;0.80;;
13114;SDS011;6623;52.120;8.660;2022-09-03T09:34:32;2.97;;;0.97;;
13114;SDS011;6623;52.120;8.660;2022-09-03T09:37:00;1.80;;;0.90;;
13114;SDS011;6623;52.120;8.660;2022-09-03T09:39:28;3.50;;;1.17;;
13114;SDS011;6623;52.120;8.660;2022-09-03T09:42:05;2.53;;;1.10;;
13114;SDS011;6623;52.120;8.660;2022-09-03T09:44:39;3.83;;;0.90;;
13114;SDS011;6623;52.120;8.660;2022-09-03T09:47:06;1.20;;;0.90;;
13114;SDS011;6623;52.120;8.660;2022-09-03T09:49:51;0.97;;;0.70;;
13114;SDS011;6623;52.120;8.660;2022-09-03T09:52:22;1.00;;;0.80;;
13114;SDS011;6623;52.120;8.660;2022-09-03T09:57:52;2.40;;;0.70;;
13114;SDS011;6623;52.120;8.660;2022-09-03T10:01:11;1.40;;;0.70;;
13114;SDS011;6623;52.120;8.660;2022-09-03T10:03:47;1.77;;;1.00;;
13114;SDS011;6623;52.120;8.660;2022-09-03T10:06:18;4.70;;;1.10;;
13114;SDS011;6623;52.120;8.660;2022-09-03T10:09:07;3.77;;;1.00;;
13114;SDS011;6623;52.120;8.660;2022-09-03T10:12:02;1.17;;;0.80;;
13114;SDS011;6623;52.120;8.660;2022-09-03T10:14:43;2.77;;;0.90;;
13114;SDS011;6623;52.120;8.660;2022-09-03T10:17:22;3.90;;;1.00;;
13114;SDS011;6623;52.120;8.660;2022-09-03T10:20:18;1.87;;;0.93;;
13114;SDS011;6623;52.120;8.660;2022-09-03T10:25:42;0.90;;;0.80;;
13114;SDS011;6623;52.120;8.660;2022-09-03T10:28:14;3.20;;;1.00;;
13114;SDS011;6623;52.120;8.660;2022-09-03T10:30:49;3.50;;;0.90;;
13114;SDS011;6623;52.120;8.660;2022-09-03T10:33:37;1.27;;;0.90;;
13114;SDS011;6623;52.120;8.660;2022-09-03T10:36:24;4.80;;;0.70;;
13114;SDS011;6623;52.120;8.660;2022-09-03T10:38:59;4.23;;;1.00;;
13114;SDS011;6623;52.120;8.660;2022-09-03T10:41:46;1.13;;;0.80;;
13114;SDS011;6623;52.120;8.660;2022-09-03T10:46:57;1.73;;;0.90;;
13114;SDS011;6623;52.120;8.660;2022-09-03T10:50:27;1.87;;;1.00;;
13114;SDS011;6623;52.120;8.660;2022-09-03T10:52:41;1.60;;;1.00;;
13114;SDS011;6623;52.120;8.660;2022-09-03T11:00:24;1.53;;;0.70;;
13114;SDS011;6623;52.120;8.660;2022-09-03T11:05:40;1.27;;;0.70;;
13114;SDS011;6623;52.120;8.660;2022-09-03T11:08:11;6.00;;;1.10;;
13114;SDS011;6623;52.120;8.660;2022-09-03T11:10:43;3.53;;;0.83;;
13114;SDS011;6623;52.120;8.660;2022-09-03T11:13:30;3.27;;;0.80;;
13114;SDS011;6623;52.120;8.660;2022-09-03T11:16:02;1.50;;;0.83;;
13114;SDS011;6623;52.120;8.660;2022-09-03T11:18:35;3.27;;;0.93;;
13114;SDS011;6623;52.120;8.660;2022-09-03T11:21:07;3.63;;;1.00;;
13114;SDS011;6623;52.120;8.660;2022-09-03T11:23:39;1.60;;;0.90;;
13114;SDS011;6623;52.120;8.660;2022-09-03T11:26:19;2.60;;;0.93;;
13114;SDS011;6623;52.120;8.660;2022-09-03T11:43:43;2.63;;;0.90;;
13114;SDS011;6623;52.120;8.660;2022-09-03T12:26:10;3.60;;;0.87;;
13114;SDS011;6623;52.120;8.660;2022-09-03T12:28:48;5.27;;;0.87;;
13114;SDS011;6623;52.120;8.660;2022-09-03T12:31:18;1.43;;;1.10;;
13114;SDS011;6623;52.120;8.660;2022-09-03T12:33:55;2.40;;;0.90;;
13114;SDS011;6623;52.120;8.660;2022-09-03T12:39:35;3.53;;;0.87;;
13114;SDS011;6623;52.120;8.660;2022-09-03T12:42:07;3.73;;;0.90;;
13114;SDS011;6623;52.120;8.660;2022-09-03T13:02:42;1.33;;;0.80;;
13114;SDS011;6623;52.120;8.660;2022-09-03T13:05:32;1.17;;;0.80;;
13114;SDS011;6623;52.120;8.660;2022-09-03T13:21:21;0.97;;;0.80;;
13114;SDS011;6623;52.120;8.660;2022-09-03T13:26:39;1.73;;;0.90;;
13114;SDS011;6623;52.120;8.660;2022-09-03T15:45:27;0.70;;;0.70;;
13114;SDS011;6623;52.120;8.660;2022-09-03T16:08:57;1.63;;;0.80;;
13114;SDS011;6623;52.120;8.660;2022-09-03T16:19:31;2.30;;;0.93;;
13114;SDS011;6623;52.120;8.660;2022-09-03T16:25:30;1.53;;;1.00;;
13114;SDS011;6623;52.120;8.660;2022-09-03T16:29:00;2.90;;;1.10;;
13114;SDS011;6623;52.120;8.660;2022-09-03T16:31:31;2.70;;;1.00;;
13114;SDS011;6623;52.120;8.660;2022-09-03T16:34:25;1.53;;;0.90;;
13114;SDS011;6623;52.120;8.660;2022-09-03T16:40:06;1.30;;;0.90;;
13114;SDS011;6623;52.120;8.660;2022-09-03T16:59:36;2.60;;;0.90;;
13114;SDS011;6623;52.120;8.660;2022-09-03T17:12:30;1.87;;;0.93;;
13114;SDS011;6623;52.120;8.660;2022-09-03T17:15:20;1.53;;;1.10;;
13114;SDS011;6623;52.120;8.660;2022-09-03T17:18:18;3.70;;;1.23;;
13114;SDS011;6623;52.120;8.660;2022-09-03T17:31:05;3.83;;;0.80;;
13114;SDS011;6623;52.120;8.660;2022-09-03T17:33:39;1.03;;;0.83;;
13114;SDS011;6623;52.120;8.660;2022-09-03T17:36:16;2.43;;;1.00;;
13114;SDS011;6623;52.120;8.660;2022-09-03T17:38:48;2.03;;;0.90;;
13114;SDS011;6623;52.120;8.660;2022-09-03T17:44:24;1.10;;;0.90;;
13114;SDS011;6623;52.120;8.660;2022-09-03T17:52:28;4.90;;;1.10;;
13114;SDS011;6623;52.120;8.660;2022-09-03T17:55:31;2.17;;;0.70;;
13114;SDS011;6623;52.120;8.660;2022-09-03T17:58:21;2.73;;;0.97;;
13114;SDS011;6623;52.120;8.660;2022-09-03T18:14:57;2.47;;;1.10;;
13114;SDS011;6623;52.120;8.660;2022-09-03T18:17:26;3.73;;;0.93;;
13114;SDS011;6623;52.120;8.660;2022-09-03T18:19:58;6.10;;;1.03;;
13114;SDS011;6623;52.120;8.660;2022-09-03T18:23:47;2.27;;;0.80;;
13114;SDS011;6623;52.120;8.660;2022-09-03T18:26:02;2.90;;;1.20;;
13114;SDS011;6623;52.120;8.660;2022-09-03T18:31:42;4.63;;;1.00;;
13114;SDS011;6623;52.120;8.660;2022-09-03T21:38:04;3.80;;;1.70;;
13114;SDS011;6623;52.120;8.660;2022-09-03T21:40:51;1.90;;;1.40;;
13114;SDS011;6623;52.120;8.660;2022-09-03T21:43:41;4.20;;;1.50;;
13114;SDS011;6623;52.120;8.660;2022-09-03T21:46:19;2.90;;;1.77;;
13114;SDS011;6623;52.120;8.660;2022-09-03T21:49:05;3.67;;;1.43;;
13114;SDS011;6623;52.120;8.660;2022-09-03T21:51:57;2.97;;;1.50;;
13114;SDS011;6623;52.120;8.660;2022-09-03T21:54:43;3.60;;;1.70;;
13114;SDS011;6623;52.120;8.660;2022-09-03T22:02:44;3.73;;;1.50;;
13114;SDS011;6623;52.120;8.660;2022-09-03T22:05:10;3.07;;;1.67;;
13114;SDS011;6623;52.120;8.660;2022-09-03T22:39:21;2.07;;;1.50;;
13114;SDS011;6623;52.120;8.660;2022-09-03T22:42:36;2.60;;;1.53;;
13114;SDS011;6623;52.120;8.660;2022-09-03T23:32:36;3.53;;;1.40;;
